createdAt,value
2023-09-06T00:02:01.858Z,1.20
2023-09-06T00:05:04.777Z,1.38
2023-09-06T00:08:09.635Z,1.42
2023-09-06T00:11:12.011Z,1.52
2023-09-06T00:14:14.669Z,1.25
2023-09-06T00:17:16.892Z,1.52
2023-09-06T00:20:22.915Z,1.27
2023-09-06T00:23:27.140Z,1.48
2023-09-06T00:26:29.354Z,1.13
2023-09-06T00:29:33.642Z,1.25
2023-09-06T00:32:36.070Z,1.45
2023-09-06T00:35:39.070Z,1.23
2023-09-06T00:38:42.668Z,1.40
2023-09-06T00:41:46.116Z,1.85
2023-09-06T00:44:49.546Z,1.55
2023-09-06T00:47:52.244Z,1.20
2023-09-06T00:50:56.090Z,1.20
2023-09-06T00:54:01.024Z,1.23
2023-09-06T00:57:03.871Z,1.23
2023-09-06T01:00:08.218Z,1.50
2023-09-06T01:03:10.691Z,1.40
2023-09-06T01:06:17.604Z,1.50
2023-09-06T01:09:21.258Z,1.25
2023-09-06T01:12:23.522Z,1.63
2023-09-06T01:15:25.847Z,1.45
2023-09-06T01:18:28.692Z,1.38
2023-09-06T01:21:36.231Z,1.90
2023-09-06T01:24:40.129Z,1.73
2023-09-06T01:27:42.462Z,1.92
2023-09-06T01:30:44.799Z,1.60
2023-09-06T01:33:47.104Z,1.25
2023-09-06T01:36:49.529Z,1.20
2023-09-06T01:39:53.333Z,1.60
2023-09-06T01:42:55.603Z,1.85
2023-09-06T01:45:58.160Z,1.88
2023-09-06T01:49:00.982Z,1.30
2023-09-06T01:52:06.370Z,1.58
2023-09-06T01:55:10.424Z,1.55
2023-09-06T01:58:13.623Z,1.30
2023-09-06T02:01:16.054Z,1.73
2023-09-06T02:04:18.444Z,1.27
2023-09-06T02:07:20.745Z,1.40
2023-09-06T02:10:24.580Z,1.52
2023-09-06T02:13:26.781Z,2.00
2023-09-06T02:16:29.362Z,1.40
2023-09-06T02:19:31.652Z,1.73
2023-09-06T02:22:35.374Z,1.90
2023-09-06T02:25:38.992Z,1.40
2023-09-06T02:28:41.313Z,1.70
2023-09-06T02:31:45.634Z,1.67
2023-09-06T02:34:48.450Z,1.50
2023-09-06T02:37:50.934Z,1.20
2023-09-06T02:40:56.099Z,1.40
2023-09-06T02:43:58.305Z,1.48
2023-09-06T02:50:08.381Z,1.85
2023-09-06T02:53:20.927Z,2.00
2023-09-06T02:56:25.043Z,1.50
2023-09-06T02:59:29.257Z,1.30
2023-09-06T03:02:31.624Z,1.60
2023-09-06T03:05:36.921Z,1.17
2023-09-06T03:08:40.020Z,1.90
2023-09-06T03:11:45.605Z,1.23
2023-09-06T03:14:49.312Z,1.30
2023-09-06T03:17:52.451Z,1.50
2023-09-06T03:20:56.462Z,1.50
2023-09-06T03:24:00.522Z,1.48
2023-09-06T03:27:08.675Z,1.50
2023-09-06T03:30:16.162Z,1.70
2023-09-06T03:33:23.806Z,1.50
2023-09-06T03:36:26.231Z,1.60
2023-09-06T03:39:30.472Z,1.25
2023-09-06T03:42:35.599Z,1.48
2023-09-06T03:45:37.916Z,1.70
2023-09-06T03:48:40.302Z,1.80
2023-09-06T03:51:43.413Z,1.30
2023-09-06T03:54:46.082Z,1.27
2023-09-06T03:57:49.990Z,2.00
2023-09-06T04:00:53.289Z,1.58
2023-09-06T04:04:03.835Z,1.80
2023-09-06T04:07:09.024Z,1.90
2023-09-06T04:10:17.432Z,1.67
2023-09-06T04:13:21.124Z,1.60
2023-09-06T04:16:24.937Z,1.13
2023-09-06T04:19:27.379Z,1.60
2023-09-06T04:22:29.762Z,2.00
2023-09-06T04:25:35.452Z,1.40
2023-09-06T04:28:41.297Z,2.05
2023-09-06T04:31:46.558Z,1.75
2023-09-06T04:34:49.468Z,1.45
2023-09-06T04:37:51.766Z,1.58
2023-09-06T04:40:54.637Z,1.85
2023-09-06T04:44:01.963Z,1.75
2023-09-06T04:47:05.718Z,1.70
2023-09-06T04:50:08.926Z,1.23
2023-09-06T04:53:12.929Z,1.92
2023-09-06T04:56:18.089Z,1.60
2023-09-06T04:59:25.172Z,1.73
2023-09-06T05:02:27.511Z,1.83
2023-09-06T05:05:31.393Z,2.10
2023-09-06T05:08:35.495Z,1.67
2023-09-06T05:11:44.230Z,1.30
2023-09-06T05:14:49.042Z,1.80
2023-09-06T05:17:51.621Z,1.67
2023-09-06T05:20:57.036Z,1.50
2023-09-06T05:23:59.368Z,2.65
2023-09-06T05:27:05.406Z,1.83
2023-09-06T05:30:10.236Z,1.48
2023-09-06T05:33:15.117Z,1.80
2023-09-06T05:36:18.633Z,1.75
2023-09-06T05:39:22.010Z,1.70
2023-09-06T05:42:27.492Z,1.70
2023-09-06T05:45:31.130Z,1.85
2023-09-06T05:48:41.889Z,1.30
2023-09-06T05:51:44.512Z,1.70
2023-09-06T05:54:48.705Z,1.75
2023-09-06T05:57:52.495Z,1.48
2023-09-06T06:00:57.814Z,1.38
2023-09-06T06:04:00.333Z,1.92
2023-09-06T06:07:13.099Z,1.70
2023-09-06T06:22:20.256Z,1.85
2023-09-06T06:26:15.458Z,1.77
2023-09-06T06:29:25.537Z,2.38
2023-09-06T06:32:31.149Z,1.90
2023-09-06T06:35:34.101Z,1.60
2023-09-06T06:38:36.323Z,1.77
2023-09-06T06:41:39.062Z,1.48
2023-09-06T06:44:47.586Z,1.63
2023-09-06T06:47:50.039Z,1.63
2023-09-06T06:50:52.418Z,1.25
2023-09-06T06:53:54.847Z,1.60
2023-09-06T06:56:57.327Z,1.10
2023-09-06T07:00:02.662Z,1.52
2023-09-06T07:03:08.056Z,1.02
2023-09-06T07:06:10.649Z,1.30
2023-09-06T07:09:12.953Z,1.40
2023-09-06T07:12:15.166Z,1.58
2023-09-06T07:15:18.747Z,1.38
2023-09-06T07:18:21.683Z,1.33
2023-09-06T07:21:23.982Z,1.50
2023-09-06T07:24:26.232Z,0.98
2023-09-06T07:27:28.466Z,1.13
2023-09-06T07:30:33.406Z,1.10
2023-09-06T07:33:36.112Z,1.30
2023-09-06T07:36:38.768Z,1.15
2023-09-06T07:39:41.138Z,1.13
2023-09-06T07:42:43.611Z,1.23
2023-09-06T07:45:47.223Z,1.50
2023-09-06T07:48:49.781Z,1.30
2023-09-06T07:51:52.138Z,1.27
2023-09-06T07:54:54.572Z,1.85
2023-09-06T07:57:58.645Z,2.00
2023-09-06T08:01:18.216Z,1.30
2023-09-06T08:07:25.246Z,1.73
2023-09-06T08:10:28.221Z,1.40
2023-09-06T08:13:30.523Z,1.50
2023-09-06T08:16:34.247Z,1.50
2023-09-06T08:19:36.527Z,1.40
2023-09-06T08:22:44.852Z,1.25
2023-09-06T08:25:50.932Z,1.48
2023-09-06T08:28:54.988Z,1.35
2023-09-06T08:32:01.095Z,1.90
2023-09-06T08:35:03.940Z,1.73
2023-09-06T08:38:06.727Z,1.50
2023-09-06T08:41:12.683Z,1.70
2023-09-06T08:44:15.632Z,1.58
2023-09-06T08:47:22.519Z,1.88
2023-09-06T08:50:24.889Z,1.60
2023-09-06T08:53:28.666Z,1.95
2023-09-06T08:56:32.245Z,1.80
2023-09-06T08:59:35.909Z,2.30
2023-09-06T09:02:43.747Z,1.50
2023-09-06T09:05:46.219Z,1.77
2023-09-06T09:08:48.678Z,1.90
2023-09-06T09:11:52.827Z,1.90
2023-09-06T09:14:55.640Z,1.98
2023-09-06T09:18:02.175Z,1.77
2023-09-06T09:21:11.390Z,2.10
2023-09-06T09:24:14.227Z,2.10
2023-09-06T09:27:17.414Z,1.80
2023-09-06T09:30:23.337Z,2.33
2023-09-06T09:33:29.879Z,2.08
2023-09-06T09:36:35.377Z,2.25
2023-09-06T09:39:38.389Z,2.30
2023-09-06T09:42:52.456Z,2.08
2023-09-06T09:45:55.401Z,2.20
2023-09-06T09:49:00.884Z,1.85
2023-09-06T09:52:03.624Z,2.05
2023-09-06T09:55:07.519Z,1.83
2023-09-06T09:58:10.931Z,2.17
2023-09-06T10:01:13.381Z,2.30
2023-09-06T10:04:17.359Z,2.30
2023-09-06T10:07:20.726Z,2.30
2023-09-06T10:10:24.141Z,2.40
2023-09-06T10:13:28.317Z,2.20
2023-09-06T10:16:32.727Z,2.40
2023-09-06T10:19:48.408Z,2.42
2023-09-06T10:22:58.184Z,1.80
2023-09-06T10:26:01.696Z,1.83
2023-09-06T10:29:09.314Z,2.08
2023-09-06T10:32:13.095Z,2.42
2023-09-06T10:35:24.161Z,2.42
2023-09-06T10:41:32.834Z,2.10
2023-09-06T10:45:08.048Z,2.53
2023-09-06T10:48:13.750Z,2.95
2023-09-06T10:51:19.497Z,1.95
2023-09-06T10:54:23.571Z,1.95
2023-09-06T10:57:26.544Z,2.65
2023-09-06T11:00:33.343Z,2.22
2023-09-06T11:03:35.608Z,2.08
2023-09-06T11:06:53.680Z,2.40
2023-09-06T11:10:02.068Z,2.50
2023-09-06T11:13:11.200Z,2.28
2023-09-06T11:16:17.462Z,2.70
2023-09-06T11:19:28.005Z,2.72
2023-09-06T11:22:33.617Z,2.28
2023-09-06T11:25:35.948Z,2.58
2023-09-06T11:28:39.627Z,2.50
2023-09-06T11:31:42.217Z,2.75
2023-09-06T11:34:47.519Z,2.58
2023-09-06T11:37:53.744Z,2.55
2023-09-06T11:40:57.556Z,2.42
2023-09-06T11:44:08.924Z,2.45
2023-09-06T11:47:31.031Z,2.85
2023-09-06T11:50:39.746Z,2.60
2023-09-06T11:53:54.950Z,2.38
2023-09-06T11:56:59.012Z,2.58
2023-09-06T12:00:01.803Z,2.65
2023-09-06T12:03:15.164Z,2.53
2023-09-06T12:06:17.740Z,2.57
2023-09-06T12:09:25.848Z,2.97
2023-09-06T12:12:28.129Z,2.40
2023-09-06T12:15:30.509Z,2.60
2023-09-06T12:18:33.669Z,2.85
2023-09-06T12:21:36.516Z,2.22
2023-09-06T12:24:42.096Z,2.50
2023-09-06T12:27:44.422Z,2.83
2023-09-06T12:30:46.747Z,2.60
2023-09-06T12:33:52.253Z,2.25
2023-09-06T12:36:54.608Z,2.60
2023-09-06T12:39:58.340Z,2.92
2023-09-06T12:43:03.267Z,2.58
2023-09-06T12:46:08.096Z,2.33
2023-09-06T12:49:10.602Z,1.95
2023-09-06T12:52:17.242Z,2.78
2023-09-06T12:55:21.172Z,2.45
2023-09-06T12:58:23.859Z,3.15
2023-09-06T13:01:26.529Z,2.92
2023-09-06T13:04:29.158Z,2.80
2023-09-06T13:07:31.572Z,2.60
2023-09-06T13:10:35.310Z,2.40
2023-09-06T13:13:38.127Z,3.13
2023-09-06T13:16:42.410Z,2.50
2023-09-06T13:19:45.775Z,2.42
2023-09-06T13:22:49.985Z,2.10
2023-09-06T13:25:55.734Z,2.30
2023-09-06T13:28:58.093Z,2.45
2023-09-06T13:32:00.522Z,2.67
2023-09-06T13:35:06.752Z,2.80
2023-09-06T13:38:09.081Z,2.60
2023-09-06T13:41:12.842Z,2.80
2023-09-06T13:44:16.498Z,2.47
2023-09-06T13:47:19.216Z,2.33
2023-09-06T13:50:21.675Z,2.67
2023-09-06T13:53:33.460Z,2.30
2023-09-06T13:56:37.608Z,2.75
2023-09-06T13:59:40.714Z,2.75
2023-09-06T14:02:43.286Z,2.78
2023-09-06T14:05:45.764Z,2.83
2023-09-06T14:08:48.567Z,2.38
2023-09-06T14:11:53.675Z,2.92
2023-09-06T14:14:57.924Z,2.40
2023-09-06T14:18:00.621Z,2.75
2023-09-06T14:21:03.900Z,3.35
2023-09-06T14:24:06.833Z,2.50
2023-09-06T14:27:10.472Z,3.08
2023-09-06T14:30:13.229Z,2.55
2023-09-06T14:33:15.802Z,2.95
2023-09-06T14:36:18.217Z,2.75
2023-09-06T14:39:20.750Z,2.80
2023-09-06T14:42:24.542Z,3.00
2023-09-06T14:45:28.591Z,2.50
2023-09-06T14:48:32.130Z,2.63
2023-09-06T14:51:34.853Z,2.70
2023-09-06T14:54:37.075Z,2.45
2023-09-06T14:57:41.105Z,2.40
2023-09-06T15:00:43.441Z,3.03
2023-09-06T15:03:46.128Z,2.60
2023-09-06T15:06:59.230Z,2.58
2023-09-06T15:10:05.982Z,2.70
2023-09-06T15:16:17.394Z,3.30
2023-09-06T15:19:19.708Z,2.28
2023-09-06T15:22:38.067Z,2.72
2023-09-06T15:25:41.703Z,2.10
2023-09-06T15:28:45.459Z,2.13
2023-09-06T15:31:47.678Z,2.42
2023-09-06T15:34:50.679Z,2.08
2023-09-06T15:38:00.230Z,2.63
2023-09-06T15:41:08.471Z,2.47
2023-09-06T15:44:13.070Z,2.70
2023-09-06T15:47:16.002Z,2.72
2023-09-06T15:50:18.678Z,2.50
2023-09-06T15:53:21.261Z,2.40
2023-09-06T15:56:26.432Z,2.67
2023-09-06T15:59:30.912Z,2.58
2023-09-06T16:02:34.483Z,2.72
2023-09-06T16:05:39.427Z,2.67
2023-09-06T16:08:42.079Z,2.80
2023-09-06T16:11:44.550Z,2.65
2023-09-06T16:14:52.870Z,2.67
2023-09-06T16:17:55.508Z,2.65
2023-09-06T16:20:59.336Z,2.67
2023-09-06T16:24:03.369Z,2.63
2023-09-06T16:27:06.572Z,2.78
2023-09-06T16:30:16.378Z,2.63
2023-09-06T16:33:22.013Z,2.72
2023-09-06T16:36:24.448Z,2.88
2023-09-06T16:39:30.628Z,2.95
2023-09-06T16:42:35.757Z,3.28
2023-09-06T16:45:39.437Z,2.90
2023-09-06T16:48:41.845Z,2.75
2023-09-06T16:51:49.670Z,2.50
2023-09-06T16:54:52.574Z,3.10
2023-09-06T16:58:08.018Z,3.10
2023-09-06T17:01:14.697Z,2.92
2023-09-06T17:04:17.214Z,2.78
2023-09-06T17:07:19.704Z,2.50
2023-09-06T17:10:22.138Z,3.05
2023-09-06T17:13:27.200Z,3.05
2023-09-06T17:16:36.504Z,2.83
2023-09-06T17:19:38.922Z,3.10
2023-09-06T17:23:01.569Z,2.95
2023-09-06T17:29:53.045Z,3.28
2023-09-06T17:33:16.170Z,3.45
2023-09-06T17:36:26.770Z,3.47
2023-09-06T17:39:36.623Z,4.90
2023-09-06T17:42:46.074Z,3.15
2023-09-06T17:45:51.418Z,3.17
2023-09-06T17:48:56.210Z,3.95
2023-09-06T17:51:59.845Z,3.53
2023-09-06T17:55:02.160Z,3.63
2023-09-06T17:58:07.915Z,3.38
2023-09-06T18:01:12.520Z,3.65
2023-09-06T18:04:16.680Z,3.67
2023-09-06T18:07:19.229Z,4.28
2023-09-06T18:10:21.740Z,3.67
2023-09-06T18:13:26.957Z,4.00
2023-09-06T18:16:30.519Z,4.15
2023-09-06T18:19:34.289Z,3.90
2023-09-06T18:22:36.730Z,3.85
2023-09-06T18:25:41.839Z,3.80
2023-09-06T18:28:44.339Z,3.90
2023-09-06T18:31:46.822Z,4.20
2023-09-06T18:34:50.630Z,4.20
2023-09-06T18:37:53.144Z,4.20
2023-09-06T18:40:57.381Z,3.85
2023-09-06T18:43:59.968Z,4.75
2023-09-06T18:47:02.679Z,4.63
2023-09-06T18:50:08.303Z,4.30
2023-09-06T18:53:11.314Z,4.70
2023-09-06T18:56:13.645Z,4.95
2023-09-06T18:59:15.941Z,4.28
2023-09-06T19:02:18.457Z,6.18
2023-09-06T19:05:22.391Z,5.40
2023-09-06T19:08:25.993Z,4.30
2023-09-06T19:11:28.926Z,5.35
2023-09-06T19:14:31.380Z,5.47
2023-09-06T19:17:35.618Z,4.93
2023-09-06T19:20:41.208Z,5.32
2023-09-06T19:23:46.715Z,5.20
2023-09-06T19:26:49.093Z,5.38
2023-09-06T19:29:51.738Z,5.57
2023-09-06T19:32:54.065Z,6.68
2023-09-06T19:35:57.673Z,5.35
2023-09-06T19:39:00.710Z,5.00
2023-09-06T19:42:06.180Z,5.32
2023-09-06T19:45:10.432Z,5.38
2023-09-06T19:48:13.432Z,6.00
2023-09-06T19:51:17.139Z,6.82
2023-09-06T19:54:19.783Z,4.78
2023-09-06T19:57:22.083Z,5.78
2023-09-06T20:00:24.505Z,6.95
2023-09-06T20:03:27.019Z,6.40
2023-09-06T20:06:30.800Z,6.00
2023-09-06T20:09:35.456Z,6.13
2023-09-06T20:12:37.716Z,6.03
2023-09-06T20:15:40.939Z,7.50
2023-09-06T20:18:46.680Z,7.43
2023-09-06T20:21:50.435Z,5.88
2023-09-06T20:24:52.687Z,5.32
2023-09-06T20:27:56.611Z,5.53
2023-09-06T20:30:58.976Z,6.38
2023-09-06T20:34:01.469Z,6.13
2023-09-06T20:37:05.677Z,6.85
2023-09-06T20:40:08.892Z,8.10
2023-09-06T20:43:11.187Z,7.03
2023-09-06T20:46:13.722Z,6.15
2023-09-06T20:49:17.579Z,5.18
2023-09-06T20:52:22.073Z,6.50
2023-09-06T20:55:28.208Z,6.15
2023-09-06T20:58:30.695Z,6.10
2023-09-06T21:01:33.515Z,7.22
2023-09-06T21:04:36.007Z,8.10
2023-09-06T21:07:39.691Z,7.38
2023-09-06T21:10:41.944Z,8.68
2023-09-06T21:13:44.171Z,7.53
2023-09-06T21:16:46.609Z,7.15
2023-09-06T21:19:50.379Z,7.47
2023-09-06T21:22:54.117Z,6.93
2023-09-06T21:25:56.462Z,6.70
2023-09-06T21:28:58.998Z,6.13
2023-09-06T21:32:01.585Z,5.60
2023-09-06T21:35:04.154Z,6.13
2023-09-06T21:38:08.034Z,7.43
2023-09-06T21:41:10.417Z,6.30
2023-09-06T21:44:12.648Z,7.82
2023-09-06T21:47:15.020Z,6.22
2023-09-06T21:50:17.469Z,7.32
2023-09-06T21:53:21.667Z,6.65
2023-09-06T21:56:23.960Z,6.18
2023-09-06T21:59:26.250Z,5.32
2023-09-06T22:02:28.540Z,6.05
2023-09-06T22:05:49.996Z,5.60
2023-09-06T22:09:12.065Z,9.73
2023-09-06T22:12:33.476Z,9.55
2023-09-06T22:15:35.888Z,7.20
2023-09-06T22:18:38.206Z,6.90
2023-09-06T22:21:40.520Z,6.72
2023-09-06T22:24:44.225Z,6.15
2023-09-06T22:27:46.586Z,7.05
2023-09-06T22:30:49.446Z,7.63
2023-09-06T22:33:51.822Z,6.15
2023-09-06T22:36:54.162Z,6.40
2023-09-06T22:39:57.806Z,6.82
2023-09-06T22:43:00.233Z,7.38
2023-09-06T22:46:02.635Z,6.78
2023-09-06T22:49:05.163Z,7.20
2023-09-06T22:52:08.086Z,7.20
2023-09-06T22:55:12.541Z,6.30
2023-09-06T22:58:16.246Z,7.22
2023-09-06T23:01:18.558Z,6.22
2023-09-06T23:04:21.029Z,5.38
2023-09-06T23:07:23.818Z,7.35
2023-09-06T23:10:27.544Z,6.20
2023-09-06T23:13:30.043Z,6.78
2023-09-06T23:16:37.076Z,6.07
2023-09-06T23:19:48.181Z,6.72
2023-09-06T23:22:55.960Z,6.88
2023-09-06T23:26:02.434Z,5.75
2023-09-06T23:29:08.241Z,6.13
2023-09-06T23:32:15.656Z,5.68
2023-09-06T23:35:20.189Z,6.30
2023-09-06T23:38:22.613Z,5.95
2023-09-06T23:41:28.357Z,6.05
2023-09-06T23:44:30.632Z,5.82
2023-09-06T23:47:33.138Z,5.95
2023-09-06T23:50:36.395Z,6.38
2023-09-06T23:53:40.990Z,6.50
2023-09-06T23:56:45.412Z,5.55
2023-09-06T23:59:48.736Z,6.18
